Time;durP1;ratioP1;P1;durP2;ratioP2;P2;SDS_P1;SDS_P2;PMS_P1;PMS_P2;Temp;Humidity;BMP_temperature;BMP_pressure;BME280_temperature;BME280_humidity;BME280_pressure;Samples;Min_cycle;Max_cycle;Signal;HPM_P1;HPM_P2
2021/10/29 00:00:08;;;;;;;0.68;0.25;;;;;;;;;;5035115;28;20037;-66
2021/10/29 00:02:33;;;;;;;1.13;0.22;;;;;;;;;;5034766;28;20046;-66
2021/10/29 00:04:59;;;;;;;0.20;0.20;;;;;;;;;;5034907;28;20025;-66
2021/10/29 00:07:24;;;;;;;0.20;0.20;;;;;;;;;;5035078;28;20029;-65
2021/10/29 00:09:50;;;;;;;1.20;0.25;;;;;;;;;;5033531;28;20465;-66
2021/10/29 00:12:18;;;;;;;0.82;0.22;;;;;;;;;;5034736;28;20477;-66
2021/10/29 00:14:43;;;;;;;0.50;0.28;;;;;;;;;;5034974;28;20048;-67
2021/10/29 00:17:08;;;;;;;0.93;0.10;;;;;;;;;;5034915;28;20017;-66
2021/10/29 00:19:34;;;;;;;0.20;0.20;;;;;;;;;;5034887;28;20025;-66
2021/10/29 00:21:59;;;;;;;0.47;0.32;;;;;;;;;;5034420;28;20021;-67
2021/10/29 00:24:25;;;;;;;0.20;0.20;;;;;;;;;;5034804;28;20026;-66
2021/10/29 00:26:51;;;;;;;0.10;0.10;;;;;;;;;;5034683;28;20376;-66
2021/10/29 00:29:16;;;;;;;0.68;0.38;;;;;;;;;;5034346;28;20503;-66
2021/10/29 00:31:42;;;;;;;0.10;0.10;;;;;;;;;;5034344;28;20024;-66
2021/10/29 00:34:07;;;;;;;0.80;0.40;;;;;;;;;;5033962;28;20032;-67
2021/10/29 00:36:33;;;;;;;0.28;0.10;;;;;;;;;;5034523;28;20488;-66
2021/10/29 00:38:58;;;;;;;0.45;0.28;;;;;;;;;;5034530;28;20464;-66
2021/10/29 00:41:23;;;;;;;0.60;0.30;;;;;;;;;;5034292;28;20452;-66
2021/10/29 00:43:48;;;;;;;0.57;0.30;;;;;;;;;;5034127;28;20460;-66
2021/10/29 00:46:13;;;;;;;0.57;0.40;;;;;;;;;;5034327;28;20017;-66
2021/10/29 00:48:39;;;;;;;0.32;0.20;;;;;;;;;;5034184;28;20049;-68
2021/10/29 00:51:04;;;;;;;0.20;0.10;;;;;;;;;;5034374;28;20487;-66
2021/10/29 00:53:30;;;;;;;0.73;0.20;;;;;;;;;;5034018;28;20259;-67
2021/10/29 00:55:56;;;;;;;0.30;0.25;;;;;;;;;;5033862;28;20425;-67
2021/10/29 00:58:21;;;;;;;0.40;0.30;;;;;;;;;;5034272;28;20087;-65
2021/10/29 01:00:46;;;;;;;0.30;0.20;;;;;;;;;;5033697;28;20045;-66
2021/10/29 01:03:11;;;;;;;0.88;0.20;;;;;;;;;;5033874;28;20297;-67
2021/10/29 01:05:37;;;;;;;0.47;0.22;;;;;;;;;;5033844;28;20056;-66
2021/10/29 01:08:02;;;;;;;0.13;0.13;;;;;;;;;;5033694;28;20023;-67
2021/10/29 01:10:29;;;;;;;0.40;0.30;;;;;;;;;;5033915;28;20036;-66
2021/10/29 01:12:54;;;;;;;1.15;0.25;;;;;;;;;;5033600;28;20025;-65
2021/10/29 01:15:20;;;;;;;0.30;0.20;;;;;;;;;;5033622;28;20025;-67
2021/10/29 01:17:45;;;;;;;0.40;0.40;;;;;;;;;;5033807;28;20179;-67
2021/10/29 01:20:10;;;;;;;0.43;0.22;;;;;;;;;;5033582;28;20151;-66
2021/10/29 01:22:35;;;;;;;0.38;0.22;;;;;;;;;;5033309;28;20473;-66
2021/10/29 01:25:01;;;;;;;0.50;0.30;;;;;;;;;;5033488;28;20032;-66
2021/10/29 01:27:26;;;;;;;0.15;0.10;;;;;;;;;;5033638;28;20029;-66
2021/10/29 01:29:52;;;;;;;0.38;0.30;;;;;;;;;;5033145;28;20018;-67
2021/10/29 01:32:18;;;;;;;0.38;0.20;;;;;;;;;;5033745;28;20025;-67
2021/10/29 01:34:44;;;;;;;0.57;0.28;;;;;;;;;;5032123;28;20021;-66
2021/10/29 01:37:12;;;;;;;0.28;0.20;;;;;;;;;;5033565;28;20101;-66
2021/10/29 01:39:38;;;;;;;0.28;0.10;;;;;;;;;;5033338;28;20079;-66
2021/10/29 01:42:03;;;;;;;0.45;0.15;;;;;;;;;;5033266;28;20400;-66
2021/10/29 01:44:29;;;;;;;0.43;0.20;;;;;;;;;;5033279;28;20056;-67
2021/10/29 01:46:54;;;;;;;0.47;0.38;;;;;;;;;;5033159;28;20025;-67
2021/10/29 01:49:20;;;;;;;0.28;0.22;;;;;;;;;;5033110;28;20029;-67
2021/10/29 01:51:45;;;;;;;0.85;0.20;;;;;;;;;;5033292;28;20416;-66
2021/10/29 01:54:11;;;;;;;1.52;0.20;;;;;;;;;;5033347;28;20473;-67
2021/10/29 01:56:36;;;;;;;0.13;0.10;;;;;;;;;;5033262;28;20025;-66
2021/10/29 01:59:02;;;;;;;0.80;0.20;;;;;;;;;;5033096;28;20062;-67
2021/10/29 02:01:27;;;;;;;1.27;0.30;;;;;;;;;;5052918;23;20076;-66
2021/10/29 02:03:52;;;;;;;0.30;0.17;;;;;;;;;;5052741;28;20096;-65
2021/10/29 02:06:18;;;;;;;0.17;0.17;;;;;;;;;;5052999;28;20056;-66
2021/10/29 02:08:45;;;;;;;0.38;0.20;;;;;;;;;;5052652;28;20071;-67
2021/10/29 02:11:10;;;;;;;0.20;0.20;;;;;;;;;;5053216;28;20017;-66
2021/10/29 02:13:36;;;;;;;1.35;0.52;;;;;;;;;;5052947;28;20380;-67
2021/10/29 02:16:01;;;;;;;0.10;0.10;;;;;;;;;;5052955;28;20078;-66
2021/10/29 02:18:26;;;;;;;1.17;0.35;;;;;;;;;;5052951;28;20028;-66
2021/10/29 02:20:52;;;;;;;0.20;0.10;;;;;;;;;;5052782;28;20025;-67
2021/10/29 02:23:17;;;;;;;0.22;0.13;;;;;;;;;;5053028;28;20781;-67
2021/10/29 02:25:46;;;;;;;0.20;0.20;;;;;;;;;;5052775;28;20017;-65
2021/10/29 02:28:15;;;;;;;0.30;0.20;;;;;;;;;;5051797;28;20480;-66
2021/10/29 02:30:41;;;;;;;0.17;0.15;;;;;;;;;;5052524;28;20104;-67
2021/10/29 02:33:06;;;;;;;0.13;0.10;;;;;;;;;;5055003;28;20528;-66
2021/10/29 02:35:32;;;;;;;0.17;0.13;;;;;;;;;;5056229;28;20035;-67
2021/10/29 02:37:57;;;;;;;0.22;0.10;;;;;;;;;;5055577;28;20096;-66
2021/10/29 02:40:22;;;;;;;0.55;0.20;;;;;;;;;;5056746;28;20025;-66
2021/10/29 02:42:48;;;;;;;0.20;0.20;;;;;;;;;;5056397;28;20043;-67
2021/10/29 02:45:13;;;;;;;0.75;0.30;;;;;;;;;;5056790;28;20055;-66
2021/10/29 02:47:38;;;;;;;1.40;0.30;;;;;;;;;;5056361;28;20114;-67
2021/10/29 02:50:04;;;;;;;0.30;0.10;;;;;;;;;;5056501;28;20257;-66
2021/10/29 02:52:29;;;;;;;0.30;0.20;;;;;;;;;;5054934;28;20064;-66
2021/10/29 02:54:55;;;;;;;0.52;0.10;;;;;;;;;;5055237;28;20023;-67
2021/10/29 02:57:20;;;;;;;0.25;0.20;;;;;;;;;;5056444;28;20028;-67
2021/10/29 02:59:45;;;;;;;0.50;0.10;;;;;;;;;;5056105;28;20041;-65
2021/10/29 03:02:10;;;;;;;0.10;0.10;;;;;;;;;;5055892;28;20041;-66
2021/10/29 03:04:36;;;;;;;0.20;0.10;;;;;;;;;;5055748;28;20023;-67
2021/10/29 03:07:01;;;;;;;0.40;0.30;;;;;;;;;;5056184;28;20071;-66
2021/10/29 03:09:26;;;;;;;0.55;0.10;;;;;;;;;;5055887;28;20021;-67
2021/10/29 03:11:52;;;;;;;0.95;0.20;;;;;;;;;;5055842;28;20025;-66
2021/10/29 03:14:18;;;;;;;0.15;0.10;;;;;;;;;;5055981;28;20035;-65
2021/10/29 03:16:44;;;;;;;0.40;0.20;;;;;;;;;;5055753;28;20391;-67
2021/10/29 03:19:10;;;;;;;1.10;0.65;;;;;;;;;;5054548;28;20032;-67
2021/10/29 03:21:35;;;;;;;0.38;0.38;;;;;;;;;;5055844;28;20025;-66
2021/10/29 03:24:00;;;;;;;0.35;0.13;;;;;;;;;;5055890;28;20024;-67
2021/10/29 03:26:25;;;;;;;0.40;0.20;;;;;;;;;;5055705;28;20025;-66
2021/10/29 03:28:51;;;;;;;0.30;0.10;;;;;;;;;;5055368;28;20104;-65
2021/10/29 03:31:16;;;;;;;1.35;0.22;;;;;;;;;;5055764;28;20098;-66
2021/10/29 03:33:41;;;;;;;0.93;0.20;;;;;;;;;;5055591;28;20025;-67
2021/10/29 03:36:07;;;;;;;0.63;0.20;;;;;;;;;;5054807;28;20075;-66
2021/10/29 03:38:42;;;;;;;0.15;0.10;;;;;;;;;;5055479;28;20012;-66
2021/10/29 03:41:10;;;;;;;0.10;0.10;;;;;;;;;;5055474;28;20020;-67
2021/10/29 03:43:44;;;;;;;0.57;0.22;;;;;;;;;;5054953;28;20032;-65
2021/10/29 03:46:15;;;;;;;0.10;0.08;;;;;;;;;;5055371;28;20115;-66
2021/10/29 03:51:49;;;;;;;1.75;0.15;;;;;;;;;;5055503;28;20074;-66
2021/10/29 03:54:19;;;;;;;0.55;0.10;;;;;;;;;;5055159;28;20035;-66
2021/10/29 03:56:55;;;;;;;0.60;0.43;;;;;;;;;;5054994;28;20120;-67
2021/10/29 03:59:20;;;;;;;0.73;0.22;;;;;;;;;;5055164;28;20044;-67
2021/10/29 04:01:45;;;;;;;0.30;0.20;;;;;;;;;;5054734;28;20523;-66
2021/10/29 04:04:10;;;;;;;0.30;0.20;;;;;;;;;;5054984;28;20021;-66
2021/10/29 04:06:35;;;;;;;0.10;0.10;;;;;;;;;;5054764;28;20017;-67
2021/10/29 04:09:01;;;;;;;0.90;0.20;;;;;;;;;;5054865;28;20067;-66
2021/10/29 04:11:27;;;;;;;0.77;0.25;;;;;;;;;;5054876;28;20250;-66
2021/10/29 04:13:53;;;;;;;0.35;0.30;;;;;;;;;;5054842;28;20361;-66
2021/10/29 04:16:19;;;;;;;0.75;0.32;;;;;;;;;;5054852;28;20096;-65
2021/10/29 04:18:44;;;;;;;0.20;0.10;;;;;;;;;;5054384;28;20048;-66
2021/10/29 04:21:10;;;;;;;2.17;0.10;;;;;;;;;;5054836;28;20106;-66
2021/10/29 04:23:35;;;;;;;1.55;0.20;;;;;;;;;;5054534;28;20019;-66
2021/10/29 04:26:00;;;;;;;0.60;0.20;;;;;;;;;;5054416;28;20103;-66
2021/10/29 04:28:26;;;;;;;0.22;0.10;;;;;;;;;;5054454;28;20246;-66
2021/10/29 04:30:52;;;;;;;0.30;0.10;;;;;;;;;;5054258;28;20500;-64
2021/10/29 04:33:18;;;;;;;0.22;0.10;;;;;;;;;;5054463;28;20017;-66
2021/10/29 04:35:45;;;;;;;0.40;0.25;;;;;;;;;;5054475;28;20088;-66
2021/10/29 04:38:11;;;;;;;0.47;0.25;;;;;;;;;;5054118;28;20021;-65
2021/10/29 04:40:37;;;;;;;0.43;0.17;;;;;;;;;;5054282;28;20027;-66
2021/10/29 04:43:04;;;;;;;0.55;0.20;;;;;;;;;;5054327;28;20055;-65
2021/10/29 04:45:29;;;;;;;0.30;0.10;;;;;;;;;;5054245;28;20049;-65
2021/10/29 04:47:55;;;;;;;0.13;0.13;;;;;;;;;;5054040;28;20526;-66
2021/10/29 04:50:20;;;;;;;1.45;0.17;;;;;;;;;;5054341;28;20017;-66
2021/10/29 04:52:46;;;;;;;0.80;0.20;;;;;;;;;;5053621;28;20033;-65
2021/10/29 04:55:11;;;;;;;0.60;0.20;;;;;;;;;;5053553;28;20016;-65
2021/10/29 04:57:36;;;;;;;0.20;0.10;;;;;;;;;;5053752;28;20029;-65
2021/10/29 05:00:04;;;;;;;0.10;0.10;;;;;;;;;;5053567;28;20033;-66
2021/10/29 05:02:29;;;;;;;0.20;0.15;;;;;;;;;;5053951;28;20066;-66
2021/10/29 05:04:54;;;;;;;0.25;0.10;;;;;;;;;;5053395;28;20105;-65
2021/10/29 05:07:20;;;;;;;0.55;0.10;;;;;;;;;;5054031;28;20056;-65
2021/10/29 05:09:45;;;;;;;0.32;0.15;;;;;;;;;;5053433;28;20464;-65
2021/10/29 05:12:10;;;;;;;0.50;0.10;;;;;;;;;;5053625;28;20364;-65
2021/10/29 05:14:36;;;;;;;0.20;0.10;;;;;;;;;;5053654;28;20253;-65
2021/10/29 05:17:01;;;;;;;1.40;0.32;;;;;;;;;;5053511;28;20067;-65
2021/10/29 05:19:26;;;;;;;0.10;0.10;;;;;;;;;;5053440;28;20104;-65
2021/10/29 05:21:52;;;;;;;0.10;0.10;;;;;;;;;;5053519;28;20032;-65
2021/10/29 05:24:17;;;;;;;0.20;0.20;;;;;;;;;;5053368;28;20013;-66
2021/10/29 05:26:43;;;;;;;0.38;0.10;;;;;;;;;;5053371;28;20690;-65
2021/10/29 05:29:09;;;;;;;0.43;0.03;;;;;;;;;;5053234;28;20031;-66
2021/10/29 05:31:34;;;;;;;0.40;0.10;;;;;;;;;;5053598;28;20036;-66
2021/10/29 05:34:00;;;;;;;0.22;0.10;;;;;;;;;;5053234;28;20016;-65
2021/10/29 05:36:25;;;;;;;0.30;0.05;;;;;;;;;;5053314;28;20029;-65
2021/10/29 05:38:50;;;;;;;0.15;0.15;;;;;;;;;;5053261;28;20013;-65
2021/10/29 05:41:16;;;;;;;0.90;0.25;;;;;;;;;;5053343;28;20530;-66
2021/10/29 05:43:41;;;;;;;0.28;0.15;;;;;;;;;;5053132;28;20049;-66
2021/10/29 05:46:06;;;;;;;0.08;0.03;;;;;;;;;;5053260;28;20452;-66
2021/10/29 05:48:32;;;;;;;0.35;0.22;;;;;;;;;;5052870;28;20013;-65
2021/10/29 05:51:08;;;;;;;0.40;0.25;;;;;;;;;;5053263;28;20382;-65
2021/10/29 05:53:38;;;;;;;1.30;0.32;;;;;;;;;;5052758;28;20456;-65
2021/10/29 05:56:03;;;;;;;0.10;0.10;;;;;;;;;;5053086;28;20013;-65
2021/10/29 05:58:29;;;;;;;0.35;0.15;;;;;;;;;;5052946;28;20020;-66
2021/10/29 06:00:54;;;;;;;0.40;0.28;;;;;;;;;;5052791;28;20083;-65
2021/10/29 06:03:19;;;;;;;0.47;0.10;;;;;;;;;;5052993;28;20021;-65
2021/10/29 06:05:44;;;;;;;0.85;0.30;;;;;;;;;;5053129;28;20293;-65
2021/10/29 06:08:10;;;;;;;0.20;0.10;;;;;;;;;;5057295;28;20017;-65
2021/10/29 06:10:35;;;;;;;0.40;0.15;;;;;;;;;;5056834;28;20265;-65
2021/10/29 06:13:00;;;;;;;0.10;0.10;;;;;;;;;;5056819;28;20036;-66
2021/10/29 06:15:26;;;;;;;0.25;0.22;;;;;;;;;;5057185;28;20024;-65
2021/10/29 06:17:51;;;;;;;0.68;0.20;;;;;;;;;;5056878;28;20017;-65
2021/10/29 06:20:17;;;;;;;0.57;0.20;;;;;;;;;;5056954;28;20063;-66
2021/10/29 06:25:16;;;;;;;0.20;0.10;;;;;;;;;;5057435;28;20021;-65
2021/10/29 06:30:26;;;;;;;0.25;0.10;;;;;;;;;;5056839;28;20514;-65
2021/10/29 06:32:51;;;;;;;0.22;0.20;;;;;;;;;;5056701;28;20025;-66
2021/10/29 06:35:16;;;;;;;0.88;0.17;;;;;;;;;;5056447;28;20435;-66
2021/10/29 06:37:42;;;;;;;0.30;0.20;;;;;;;;;;5056150;28;20025;-65
2021/10/29 06:40:11;;;;;;;1.25;0.10;;;;;;;;;;5056712;28;20071;-65
2021/10/29 06:42:36;;;;;;;0.60;0.10;;;;;;;;;;5056404;28;20074;-65
2021/10/29 06:47:40;;;;;;;1.48;0.30;;;;;;;;;;5056478;28;20013;-66
2021/10/29 07:41:14;;;;;;;0.30;0.10;;;;;;;;;;5055562;28;20067;-64
2021/10/29 07:43:46;;;;;;;0.22;0.10;;;;;;;;;;5055445;28;20250;-66
2021/10/29 07:46:11;;;;;;;0.10;0.10;;;;;;;;;;5055479;28;20016;-66
2021/10/29 07:48:36;;;;;;;0.20;0.20;;;;;;;;;;5055122;28;20021;-65
2021/10/29 07:51:05;;;;;;;0.40;0.20;;;;;;;;;;5055340;28;20021;-65
2021/10/29 07:53:30;;;;;;;0.88;0.10;;;;;;;;;;5055296;28;20040;-65
2021/10/29 07:56:00;;;;;;;0.82;0.17;;;;;;;;;;5054733;28;20072;-65
2021/10/29 07:58:26;;;;;;;0.60;0.30;;;;;;;;;;5055237;28;20021;-66
2021/10/29 08:00:51;;;;;;;0.50;0.25;;;;;;;;;;5054849;28;20044;-65
2021/10/29 08:03:17;;;;;;;0.10;0.10;;;;;;;;;;5054809;28;20032;-65
2021/10/29 08:05:45;;;;;;;0.28;0.10;;;;;;;;;;5054854;28;20044;-66
2021/10/29 08:08:11;;;;;;;0.95;0.50;;;;;;;;;;5055164;28;20461;-65
2021/10/29 08:10:37;;;;;;;0.38;0.20;;;;;;;;;;5054515;28;20013;-65
2021/10/29 08:13:03;;;;;;;0.88;0.20;;;;;;;;;;5054993;28;20025;-65
2021/10/29 08:15:28;;;;;;;0.93;0.20;;;;;;;;;;5054879;28;20371;-66
2021/10/29 08:17:53;;;;;;;0.40;0.10;;;;;;;;;;5054558;28;20078;-65
2021/10/29 08:20:20;;;;;;;0.75;0.10;;;;;;;;;;5054513;28;20025;-66
2021/10/29 08:22:46;;;;;;;0.45;0.25;;;;;;;;;;5054699;28;20013;-65
2021/10/29 08:25:11;;;;;;;0.40;0.15;;;;;;;;;;5054799;28;20463;-65
2021/10/29 08:27:37;;;;;;;0.45;0.15;;;;;;;;;;5054509;28;20035;-65
2021/10/29 08:30:03;;;;;;;0.55;0.10;;;;;;;;;;5053356;28;20475;-65
2021/10/29 08:32:28;;;;;;;0.10;0.10;;;;;;;;;;5054469;28;20087;-67
2021/10/29 08:34:55;;;;;;;0.13;0.10;;;;;;;;;;5054416;28;20455;-66
2021/10/29 08:37:22;;;;;;;0.93;0.20;;;;;;;;;;5052990;28;20040;-65
2021/10/29 08:39:47;;;;;;;0.60;0.30;;;;;;;;;;5054023;28;20024;-66
2021/10/29 08:42:13;;;;;;;0.93;0.13;;;;;;;;;;5054467;28;20032;-65
2021/10/29 08:44:38;;;;;;;0.77;0.38;;;;;;;;;;5054243;28;20020;-65
2021/10/29 08:47:04;;;;;;;0.65;0.30;;;;;;;;;;5054312;28;20027;-65
2021/10/29 08:49:30;;;;;;;0.77;0.30;;;;;;;;;;5054051;28;20017;-65
2021/10/29 08:51:56;;;;;;;0.40;0.25;;;;;;;;;;5054059;28;20056;-65
2021/10/29 08:54:22;;;;;;;0.82;0.28;;;;;;;;;;5052971;28;20025;-65
2021/10/29 08:56:47;;;;;;;0.60;0.10;;;;;;;;;;5053625;28;20389;-65
2021/10/29 08:59:22;;;;;;;1.15;0.20;;;;;;;;;;5054281;28;20427;-65
2021/10/29 09:01:49;;;;;;;0.40;0.10;;;;;;;;;;5053664;28;20056;-66
2021/10/29 09:04:15;;;;;;;0.63;0.20;;;;;;;;;;5053669;28;20013;-65
2021/10/29 09:06:56;;;;;;;0.20;0.10;;;;;;;;;;5053732;28;20016;-65
2021/10/29 09:16:21;;;;;;;0.30;0.10;;;;;;;;;;5053772;28;20056;-64
2021/10/29 09:31:22;;;;;;;0.40;0.10;;;;;;;;;;5053631;28;20027;-65
2021/10/29 09:31:36;;;;;;;0.10;0.00;;;;;;;;;;5053018;28;20043;-65
2021/10/29 09:34:10;;;;;;;0.25;0.20;;;;;;;;;;5053443;28;20055;-65
2021/10/29 09:36:35;;;;;;;0.22;0.10;;;;;;;;;;5052926;28;20115;-66
2021/10/29 09:39:03;;;;;;;1.90;0.40;;;;;;;;;;5053402;28;20461;-64
2021/10/29 09:41:29;;;;;;;0.73;0.10;;;;;;;;;;5052980;28;20377;-65
2021/10/29 09:44:02;;;;;;;0.10;0.10;;;;;;;;;;5053294;28;20022;-66
2021/10/29 09:46:33;;;;;;;0.70;0.10;;;;;;;;;;5053204;28;20056;-65
2021/10/29 09:49:06;;;;;;;0.68;0.10;;;;;;;;;;5053058;28;20399;-65
2021/10/29 09:51:46;;;;;;;0.55;0.20;;;;;;;;;;5053175;28;20013;-65
2021/10/29 09:54:15;;;;;;;0.80;0.25;;;;;;;;;;5053352;28;20037;-65
2021/10/29 09:56:55;;;;;;;0.20;0.17;;;;;;;;;;5052900;28;20487;-65
2021/10/29 09:59:20;;;;;;;0.40;0.20;;;;;;;;;;5053171;28;20025;-64
2021/10/29 10:01:46;;;;;;;0.20;0.00;;;;;;;;;;5052677;28;20056;-65
2021/10/29 10:04:13;;;;;;;0.47;0.10;;;;;;;;;;5052600;28;20052;-65
2021/10/29 10:06:39;;;;;;;0.30;0.10;;;;;;;;;;5052933;28;20021;-65
2021/10/29 10:09:08;;;;;;;0.22;0.10;;;;;;;;;;5053094;28;20020;-65
2021/10/29 10:11:34;;;;;;;0.60;0.20;;;;;;;;;;5051800;28;20020;-65
2021/10/29 10:14:01;;;;;;;1.08;0.20;;;;;;;;;;5053043;28;20021;-64
2021/10/29 10:16:28;;;;;;;0.20;0.10;;;;;;;;;;5052772;28;20013;-66
2021/10/29 10:18:55;;;;;;;0.30;0.10;;;;;;;;;;5053260;28;20032;-65
2021/10/29 10:21:21;;;;;;;1.08;0.20;;;;;;;;;;5052886;28;20107;-65
2021/10/29 10:23:50;;;;;;;0.80;0.15;;;;;;;;;;5052519;28;20009;-65
2021/10/29 10:47:43;;;;;;;;;;;;;;;;;;5036160;28;20071;-65
2021/10/29 10:50:15;;;;;;;0.25;0.00;;;;;;;;;;5051106;28;20374;-65
2021/10/29 10:53:03;;;;;;;0.25;0.10;;;;;;;;;;5043194;28;20032;-65
2021/10/29 10:55:35;;;;;;;0.85;0.20;;;;;;;;;;5055347;28;20013;-66
2021/10/29 10:58:26;;;;;;;0.38;0.20;;;;;;;;;;5054722;28;20114;-65
2021/10/29 11:01:01;;;;;;;0.63;0.30;;;;;;;;;;5054725;28;20510;-65
2021/10/29 11:03:47;;;;;;;0.52;0.20;;;;;;;;;;5055414;28;20074;-64
2021/10/29 11:06:38;;;;;;;0.75;0.10;;;;;;;;;;5054401;28;20048;-65
2021/10/29 11:11:55;;;;;;;0.10;0.10;;;;;;;;;;5055061;28;20051;-65
2021/10/29 11:14:33;;;;;;;0.38;0.10;;;;;;;;;;5052947;28;20029;-64
2021/10/29 11:16:59;;;;;;;0.25;0.00;;;;;;;;;;5053739;28;20021;-66
2021/10/29 11:19:33;;;;;;;0.45;0.10;;;;;;;;;;5055979;28;20460;-65
2021/10/29 11:21:59;;;;;;;0.30;0.10;;;;;;;;;;5055257;28;20020;-65
2021/10/29 11:24:32;;;;;;;0.45;0.20;;;;;;;;;;5055564;28;20358;-65
2021/10/29 11:27:18;;;;;;;0.70;0.37;;;;;;;;;;5055908;28;20013;-64
2021/10/29 11:29:47;;;;;;;0.60;0.20;;;;;;;;;;5055319;28;20084;-64
2021/10/29 11:32:13;;;;;;;0.75;0.10;;;;;;;;;;5055573;28;20013;-64
2021/10/29 11:34:38;;;;;;;1.20;0.10;;;;;;;;;;5056018;28;20051;-66
2021/10/29 11:37:04;;;;;;;0.85;0.32;;;;;;;;;;5055629;28;20463;-65
2021/10/29 11:39:31;;;;;;;0.13;0.08;;;;;;;;;;5055419;28;20468;-65
2021/10/29 11:41:56;;;;;;;0.50;0.10;;;;;;;;;;5055371;28;20035;-65
2021/10/29 11:44:23;;;;;;;0.15;0.10;;;;;;;;;;5055491;28;20460;-65
2021/10/29 11:46:49;;;;;;;0.50;0.20;;;;;;;;;;5055306;28;20021;-64
2021/10/29 11:49:25;;;;;;;0.30;0.10;;;;;;;;;;5055335;28;20519;-65
2021/10/29 11:51:51;;;;;;;2.22;0.68;;;;;;;;;;5058817;28;20017;-65
2021/10/29 11:57:05;;;;;;;1.35;0.17;;;;;;;;;;5054771;28;20068;-66
2021/10/29 12:05:50;;;;;;;0.30;0.10;;;;;;;;;;5035075;28;20156;-65
2021/10/29 12:07:48;;;;;;;0.30;0.10;;;;;;;;;;5034948;28;20063;-65
2021/10/29 12:10:18;;;;;;;0.10;0.08;;;;;;;;;;5044839;28;20456;-65
2021/10/29 12:12:45;;;;;;;0.50;0.35;;;;;;;;;;5058665;28;20036;-65
2021/10/29 12:15:16;;;;;;;0.10;0.10;;;;;;;;;;5062900;28;20025;-65
2021/10/29 12:17:51;;;;;;;0.47;0.20;;;;;;;;;;5054716;28;20104;-65
2021/10/29 12:20:20;;;;;;;0.55;0.25;;;;;;;;;;5067671;28;20115;-65
2021/10/29 12:22:48;;;;;;;0.55;0.30;;;;;;;;;;5054259;28;20025;-66
2021/10/29 12:25:27;;;;;;;0.77;0.30;;;;;;;;;;5054877;28;20013;-65
2021/10/29 12:28:00;;;;;;;2.05;0.73;;;;;;;;;;5054177;28;20009;-66
2021/10/29 13:03:44;;;;;;;1.95;0.20;;;;;;;;;;5054103;28;20039;-65
2021/10/29 13:06:13;;;;;;;1.63;0.30;;;;;;;;;;5064071;28;20025;-65
2021/10/29 13:08:39;;;;;;;1.40;0.38;;;;;;;;;;5055274;28;20020;-65
2021/10/29 13:11:04;;;;;;;0.55;0.20;;;;;;;;;;5053734;28;20456;-66
2021/10/29 13:16:03;;;;;;;0.28;0.20;;;;;;;;;;5052834;28;20470;-67
2021/10/29 13:18:39;;;;;;;2.25;0.65;;;;;;;;;;5053485;28;20452;-67
2021/10/29 13:34:51;;;;;;;1.48;0.38;;;;;;;;;;5053260;28;20150;-67
2021/10/29 13:51:07;;;;;;;1.95;0.32;;;;;;;;;;4972097;28;20074;-66
2021/10/29 13:56:10;;;;;;;1.80;0.30;;;;;;;;;;4996223;28;20029;-66
2021/10/29 13:59:01;;;;;;;1.00;0.38;;;;;;;;;;4999996;28;20045;-68
2021/10/29 14:01:43;;;;;;;1.60;0.52;;;;;;;;;;4971389;28;20043;-67
2021/10/29 14:28:53;;;;;;;1.95;0.50;;;;;;;;;;5034360;28;20024;-67
2021/10/29 14:34:00;;;;;;;2.60;0.80;;;;;;;;;;5036845;28;20025;-67
2021/10/29 14:36:30;;;;;;;1.27;0.22;;;;;;;;;;5036748;28;20182;-66
2021/10/29 14:39:03;;;;;;;1.35;0.20;;;;;;;;;;5051013;28;20048;-67
2021/10/29 14:41:43;;;;;;;0.20;0.10;;;;;;;;;;5056379;28;20021;-67
2021/10/29 14:44:36;;;;;;;0.85;0.20;;;;;;;;;;5056530;28;20037;-67
2021/10/29 14:49:50;;;;;;;1.48;0.30;;;;;;;;;;5056561;28;20017;-66
2021/10/29 15:00:40;;;;;;;0.82;0.20;;;;;;;;;;5056022;28;20511;-65
2021/10/29 15:05:47;;;;;;;1.60;0.53;;;;;;;;;;5076505;28;20108;-67
2021/10/29 15:16:41;;;;;;;2.17;0.60;;;;;;;;;;5055154;28;20131;-67
2021/10/29 15:25:07;;;;;;;0.70;0.30;;;;;;;;;;5055440;28;20496;-65
2021/10/29 15:28:23;;;;;;;1.23;0.40;;;;;;;;;;5055370;28;20108;-67
2021/10/29 15:30:34;;;;;;;1.50;0.30;;;;;;;;;;5052600;28;20063;-66
2021/10/29 15:41:21;;;;;;;1.40;0.40;;;;;;;;;;5054726;28;20059;-67
2021/10/29 15:46:20;;;;;;;1.45;0.28;;;;;;;;;;5055567;28;20024;-67
2021/10/29 15:48:50;;;;;;;2.65;0.77;;;;;;;;;;5055289;28;20470;-65
2021/10/29 15:51:15;;;;;;;0.82;0.20;;;;;;;;;;5055180;28;20551;-67
2021/10/29 15:53:42;;;;;;;0.77;0.28;;;;;;;;;;5055174;28;20048;-67
2021/10/29 15:56:15;;;;;;;0.35;0.10;;;;;;;;;;5055055;28;20105;-66
2021/10/29 16:17:20;;;;;;;1.95;0.20;;;;;;;;;;5032872;28;20091;-66
2021/10/29 16:19:46;;;;;;;1.25;0.15;;;;;;;;;;5032505;28;20037;-68
2021/10/29 16:27:42;;;;;;;1.80;0.10;;;;;;;;;;5032404;28;20024;-67
2021/10/29 16:30:07;;;;;;;0.57;0.20;;;;;;;;;;5032426;28;20030;-66
2021/10/29 16:32:51;;;;;;;0.98;0.28;;;;;;;;;;5015622;28;20066;-67
2021/10/29 16:35:17;;;;;;;1.17;0.38;;;;;;;;;;5032564;28;20017;-65
2021/10/29 16:37:43;;;;;;;0.95;0.10;;;;;;;;;;5031989;28;20516;-68
2021/10/29 16:40:09;;;;;;;1.75;0.60;;;;;;;;;;5032027;28;20033;-67
2021/10/29 16:42:35;;;;;;;1.45;0.20;;;;;;;;;;5031857;28;20026;-67
2021/10/29 16:45:00;;;;;;;0.20;0.15;;;;;;;;;;5040074;28;20044;-66
2021/10/29 16:47:27;;;;;;;2.05;0.32;;;;;;;;;;5054399;28;20139;-65
2021/10/29 16:49:53;;;;;;;1.08;0.30;;;;;;;;;;5054079;28;20020;-67
2021/10/29 16:52:18;;;;;;;0.35;0.05;;;;;;;;;;5052946;28;20025;-67
2021/10/29 16:54:43;;;;;;;0.30;0.10;;;;;;;;;;5053928;28;20036;-66
2021/10/29 16:57:09;;;;;;;1.35;0.10;;;;;;;;;;5053978;28;20411;-67
2021/10/29 16:59:34;;;;;;;2.65;0.40;;;;;;;;;;5053770;28;20025;-66
2021/10/29 17:01:59;;;;;;;0.68;0.30;;;;;;;;;;5053739;28;20072;-65
2021/10/29 17:04:24;;;;;;;0.47;0.10;;;;;;;;;;5053921;28;20017;-67
2021/10/29 17:06:49;;;;;;;0.35;0.20;;;;;;;;;;5053450;28;20281;-67
2021/10/29 17:09:15;;;;;;;0.28;0.20;;;;;;;;;;5053969;28;20101;-67
2021/10/29 17:11:40;;;;;;;0.70;0.30;;;;;;;;;;5053543;28;20427;-67
2021/10/29 17:14:05;;;;;;;2.38;0.32;;;;;;;;;;5053830;28;20074;-66
2021/10/29 17:16:31;;;;;;;0.47;0.13;;;;;;;;;;5053594;28;20047;-65
2021/10/29 17:18:56;;;;;;;0.80;0.30;;;;;;;;;;5053370;28;20070;-67
2021/10/29 17:21:21;;;;;;;2.53;0.30;;;;;;;;;;5053336;28;20036;-67
2021/10/29 17:23:46;;;;;;;2.38;0.20;;;;;;;;;;5053551;28;20636;-66
2021/10/29 17:26:11;;;;;;;2.25;0.20;;;;;;;;;;5053485;28;20539;-67
2021/10/29 17:28:37;;;;;;;1.10;0.30;;;;;;;;;;5052204;28;20368;-67
2021/10/29 17:31:02;;;;;;;1.17;0.13;;;;;;;;;;5053407;28;20365;-66
2021/10/29 17:33:27;;;;;;;0.55;0.25;;;;;;;;;;5053456;28;20052;-67
2021/10/29 17:35:53;;;;;;;1.13;0.20;;;;;;;;;;5053335;28;20092;-67
2021/10/29 17:38:18;;;;;;;0.60;0.20;;;;;;;;;;5053451;28;20107;-66
2021/10/29 17:40:43;;;;;;;0.98;0.20;;;;;;;;;;5053037;28;20732;-66
2021/10/29 17:43:09;;;;;;;1.27;0.28;;;;;;;;;;5053392;28;20029;-68
2021/10/29 17:45:34;;;;;;;0.75;0.20;;;;;;;;;;5053264;28;20491;-67
2021/10/29 17:48:00;;;;;;;0.70;0.38;;;;;;;;;;5052897;28;20025;-66
2021/10/29 17:50:25;;;;;;;1.17;0.35;;;;;;;;;;5052971;28;20066;-67
2021/10/29 17:52:54;;;;;;;1.48;0.40;;;;;;;;;;5052960;28;20025;-66
2021/10/29 17:55:19;;;;;;;1.80;0.32;;;;;;;;;;5053294;28;20035;-66
2021/10/29 17:57:44;;;;;;;0.20;0.20;;;;;;;;;;5052765;28;20043;-67
2021/10/29 18:00:10;;;;;;;3.30;1.05;;;;;;;;;;5053009;28;20508;-67
2021/10/29 18:02:35;;;;;;;1.58;0.38;;;;;;;;;;5052452;28;20025;-65
2021/10/29 18:05:00;;;;;;;2.97;0.70;;;;;;;;;;5053064;28;20097;-66
2021/10/29 18:07:27;;;;;;;1.02;0.40;;;;;;;;;;5053086;28;20258;-67
2021/10/29 18:09:54;;;;;;;1.15;0.30;;;;;;;;;;5052978;28;20023;-66
2021/10/29 18:12:19;;;;;;;1.52;0.50;;;;;;;;;;5053116;28;20017;-67
2021/10/29 18:14:45;;;;;;;1.27;0.40;;;;;;;;;;5051445;28;20554;-67
2021/10/29 18:17:12;;;;;;;0.30;0.20;;;;;;;;;;5052905;28;20087;-66
2021/10/29 18:19:38;;;;;;;2.35;0.40;;;;;;;;;;5052687;28;20017;-66
2021/10/29 18:22:03;;;;;;;1.90;0.30;;;;;;;;;;5052608;28;20062;-67
2021/10/29 18:24:29;;;;;;;1.95;0.30;;;;;;;;;;5052579;28;20021;-66
2021/10/29 18:26:54;;;;;;;0.98;0.35;;;;;;;;;;5052775;28;20017;-66
2021/10/29 18:29:19;;;;;;;0.20;0.10;;;;;;;;;;5052709;28;20376;-67
2021/10/29 18:31:45;;;;;;;0.88;0.38;;;;;;;;;;5052499;28;20036;-66
2021/10/29 18:34:10;;;;;;;0.43;0.25;;;;;;;;;;5051543;28;20025;-65
2021/10/29 18:36:35;;;;;;;1.83;0.32;;;;;;;;;;5052653;28;20043;-67
2021/10/29 18:39:03;;;;;;;1.55;0.60;;;;;;;;;;5052647;28;20357;-67
2021/10/29 18:41:31;;;;;;;1.20;0.40;;;;;;;;;;5052331;28;20530;-65
2021/10/29 18:43:57;;;;;;;1.92;0.52;;;;;;;;;;5052738;28;20496;-66
2021/10/29 18:46:22;;;;;;;1.15;0.50;;;;;;;;;;5052847;28;20040;-66
2021/10/29 18:48:50;;;;;;;1.13;0.43;;;;;;;;;;5052506;28;20032;-65
2021/10/29 18:51:15;;;;;;;1.63;0.55;;;;;;;;;;5052517;28;20303;-66
2021/10/29 18:53:40;;;;;;;1.13;0.40;;;;;;;;;;5052387;28;20476;-67
2021/10/29 18:56:06;;;;;;;0.57;0.20;;;;;;;;;;5051377;28;20040;-66
2021/10/29 18:58:31;;;;;;;2.30;1.00;;;;;;;;;;5052495;28;20021;-67
2021/10/29 19:00:56;;;;;;;1.70;0.52;;;;;;;;;;5052270;28;20049;-66
2021/10/29 19:03:21;;;;;;;2.57;0.40;;;;;;;;;;5052553;28;20032;-65
2021/10/29 19:05:46;;;;;;;0.52;0.35;;;;;;;;;;5052284;28;20270;-65
2021/10/29 19:08:12;;;;;;;0.70;0.30;;;;;;;;;;5052305;28;20059;-67
2021/10/29 19:10:37;;;;;;;1.35;0.30;;;;;;;;;;5052141;28;20057;-67